Time,TemperatureF,DewpointF,PressureIn,WindDirection,WindDirectionDegrees,WindSpeedMPH,WindSpeedGustMPH,Humidity,HourlyPrecipIn,Conditions,Clouds,dailyrainin,SolarRadiationWatts/m^2,SoftwareType,DateUTC
2013-04-18 00:02:00,37.0,35.7,29.81,NNE,13,21.0,26.0,95,0.00,,,0.00,0,Wunderground v.1.15,2013-04-18 05:02:00,
2013-04-18 00:07:00,37.0,35.7,29.82,NNW,336,19.0,26.0,95,0.00,,,0.01,0,Wunderground v.1.15,2013-04-18 05:07:00,
2013-04-18 00:12:00,36.9,35.9,29.81,NNW,345,18.0,24.0,96,0.00,,,0.01,0,Wunderground v.1.15,2013-04-18 05:12:00,
2013-04-18 00:18:00,36.7,35.7,29.78,North,9,19.0,24.0,96,0.22,,,0.02,0,Wunderground v.1.15,2013-04-18 05:18:00,
2013-04-18 00:24:00,36.6,35.6,29.80,NNW,344,18.0,25.0,96,0.39,,,0.05,0,Wunderground v.1.15,2013-04-18 05:24:00,
2013-04-18 00:30:00,36.5,35.5,29.77,NNE,15,16.0,16.0,96,0.27,,,0.08,0,Wunderground v.1.15,2013-04-18 05:30:00,
2013-04-18 00:35:00,36.3,35.3,29.75,NNE,15,16.0,22.0,96,0.25,,,0.10,0,Wunderground v.1.15,2013-04-18 05:35:00,
2013-04-18 00:41:00,36.4,35.4,29.81,NNE,15,16.0,17.0,96,0.13,,,0.11,0,Wunderground v.1.15,2013-04-18 05:41:00,
2013-04-18 00:47:00,36.5,35.5,29.84,North,5,13.0,17.0,96,0.09,,,0.12,0,Wunderground v.1.15,2013-04-18 05:47:00,
2013-04-18 00:52:00,36.5,35.5,29.86,NNW,348,11.0,12.0,96,0.08,,,0.13,0,Wunderground v.1.15,2013-04-18 05:52:00,
2013-04-18 00:57:00,36.6,35.6,29.85,North,355,11.0,16.0,96,0.11,,,0.14,0,Wunderground v.1.15,2013-04-18 05:57:00,
2013-04-18 01:02:00,36.6,35.6,29.86,North,360,14.0,15.0,96,0.18,,,0.15,0,Wunderground v.1.15,2013-04-18 06:02:00,
2013-04-18 01:07:00,36.5,35.5,29.86,North,355,15.0,22.0,96,0.21,,,0.17,0,Wunderground v.1.15,2013-04-18 06:07:00,
2013-04-18 01:12:00,36.5,35.5,29.86,NNW,341,15.0,24.0,96,0.18,,,0.19,0,Wunderground v.1.15,2013-04-18 06:12:00,
2013-04-18 01:17:00,36.4,35.4,29.84,NNW,338,17.0,24.0,96,0.16,,,0.20,0,Wunderground v.1.15,2013-04-18 06:17:00,
2013-04-18 01:22:00,36.3,35.3,29.81,NNW,343,18.0,26.0,96,0.31,,,0.23,0,Wunderground v.1.15,2013-04-18 06:22:00,
2013-04-18 01:27:00,36.2,35.2,29.79,North,355,20.0,26.0,96,0.16,,,0.24,0,Wunderground v.1.15,2013-04-18 06:27:00,
2013-04-18 01:32:00,36.2,35.2,29.82,NNW,342,21.0,26.0,96,0.12,,,0.25,0,Wunderground v.1.15,2013-04-18 06:32:00,
2013-04-18 01:37:00,36.3,35.3,29.84,North,350,22.0,28.0,96,0.09,,,0.25,0,Wunderground v.1.15,2013-04-18 06:37:00,
2013-04-18 01:43:00,36.2,35.2,29.80,NNE,23,22.0,22.0,96,0.20,,,0.27,0,Wunderground v.1.15,2013-04-18 06:43:00,
2013-04-18 01:49:00,36.1,35.1,29.80,North,360,20.0,25.0,96,0.20,,,0.29,0,Wunderground v.1.15,2013-04-18 06:49:00,
2013-04-18 01:54:00,36.0,35.0,29.80,NNW,347,20.0,26.0,96,0.23,,,0.31,0,Wunderground v.1.15,2013-04-18 06:54:00,
2013-04-18 02:00:00,36.0,35.0,29.82,NNW,342,18.0,19.0,96,0.19,,,0.33,0,Wunderground v.1.15,2013-04-18 07:00:00,
2013-04-18 02:06:00,36.0,35.0,29.84,North,355,17.0,26.0,96,0.06,,,0.33,0,Wunderground v.1.15,2013-04-18 07:06:00,
2013-04-18 02:11:00,36.1,35.1,29.84,North,5,16.0,16.0,96,0.06,,,0.34,0,Wunderground v.1.15,2013-04-18 07:11:00,
2013-04-18 02:16:00,36.1,35.1,29.84,North,5,17.0,24.0,96,0.07,,,0.35,0,Wunderground v.1.15,2013-04-18 07:16:00,
2013-04-18 02:22:00,36.0,35.0,29.83,North,5,18.0,20.0,96,0.19,,,0.37,0,Wunderground v.1.15,2013-04-18 07:22:00,
2013-04-18 02:27:00,36.0,35.0,29.83,NNE,29,16.0,20.0,96,0.11,,,0.37,0,Wunderground v.1.15,2013-04-18 07:27:00,
2013-04-18 02:32:00,36.0,35.0,29.82,North,355,17.0,25.0,96,0.06,,,0.37,0,Wunderground v.1.15,2013-04-18 07:32:00,
2013-04-18 02:37:00,36.0,34.7,29.82,NNW,342,20.0,25.0,95,0.04,,,0.37,0,Wunderground v.1.15,2013-04-18 07:37:00,
2013-04-18 02:42:00,36.0,34.7,29.82,North,351,21.0,21.0,95,0.00,,,0.38,0,Wunderground v.1.15,2013-04-18 07:42:00,
2013-04-18 02:48:00,35.7,34.4,29.77,North,360,16.0,27.0,95,0.19,,,0.40,0,Wunderground v.1.15,2013-04-18 07:48:00,
2013-04-18 02:54:00,35.6,34.3,29.79,North,349,17.0,17.0,95,0.36,,,0.44,0,Wunderground v.1.15,2013-04-18 07:54:00,
2013-04-18 03:00:00,35.4,34.4,29.78,NNW,346,17.0,17.0,96,0.15,,,0.45,0,Wunderground v.1.15,2013-04-18 08:00:00,
2013-04-18 03:05:00,35.4,34.4,29.78,NNE,19,18.0,19.0,96,0.11,,,0.46,0,Wunderground v.1.15,2013-04-18 08:05:00,
2013-04-18 03:10:00,35.4,34.4,29.78,NNE,15,17.0,17.0,96,0.07,,,0.46,0,Wunderground v.1.15,2013-04-18 08:10:00,
2013-04-18 03:16:00,35.3,34.3,29.76,North,5,18.0,25.0,96,0.04,,,0.46,0,Wunderground v.1.15,2013-04-18 08:16:00,
2013-04-18 03:22:00,35.3,34.0,29.74,NNW,348,20.0,20.0,95,0.00,,,0.46,0,Wunderground v.1.15,2013-04-18 08:22:00,
2013-04-18 03:27:00,35.3,34.0,29.76,NNE,22,19.0,23.0,95,0.00,,,0.46,0,Wunderground v.1.15,2013-04-18 08:27:00,
2013-04-18 03:32:00,35.2,33.9,29.75,NNW,344,18.0,18.0,95,0.00,,,0.46,0,Wunderground v.1.15,2013-04-18 08:32:00,
2013-04-18 03:38:00,35.2,34.2,29.76,North,355,16.0,29.0,96,0.00,,,0.46,0,Wunderground v.1.15,2013-04-18 08:38:00,
2013-04-18 03:44:00,35.3,34.0,29.78,North,355,18.0,22.0,95,0.00,,,0.46,0,Wunderground v.1.15,2013-04-18 08:44:00,
2013-04-18 03:50:00,35.3,34.3,29.77,North,355,18.0,18.0,96,0.00,,,0.46,0,Wunderground v.1.15,2013-04-18 08:50:00,
2013-04-18 03:56:00,35.3,34.0,29.75,North,11,20.0,26.0,95,0.00,,,0.46,0,Wunderground v.1.15,2013-04-18 08:56:00,
2013-04-18 04:01:00,35.3,34.0,29.74,NNE,18,18.0,19.0,95,0.00,,,0.46,0,Wunderground v.1.15,2013-04-18 09:01:00,
2013-04-18 04:07:00,35.3,34.0,29.75,North,355,18.0,22.0,95,0.00,,,0.46,0,Wunderground v.1.15,2013-04-18 09:07:00,
2013-04-18 04:13:00,35.2,33.9,29.74,North,351,20.0,20.0,95,0.00,,,0.46,0,Wunderground v.1.15,2013-04-18 09:13:00,
2013-04-18 04:18:00,35.2,33.9,29.75,North,5,20.0,26.0,95,0.00,,,0.46,0,Wunderground v.1.15,2013-04-18 09:18:00,
2013-04-18 04:23:00,35.2,33.9,29.75,North,9,17.0,23.0,95,0.00,,,0.46,0,Wunderground v.1.15,2013-04-18 09:23:00,
2013-04-18 04:29:00,35.2,33.6,29.75,North,350,16.0,23.0,94,0.00,,,0.46,0,Wunderground v.1.15,2013-04-18 09:29:00,
2013-04-18 04:35:00,35.2,33.6,29.77,North,360,17.0,21.0,94,0.00,,,0.46,0,Wunderground v.1.15,2013-04-18 09:35:00,
2013-04-18 04:40:00,35.3,33.7,29.77,North,350,16.0,20.0,94,0.00,,,0.46,0,Wunderground v.1.15,2013-04-18 09:40:00,
2013-04-18 04:46:00,35.3,33.7,29.77,NNW,347,16.0,22.0,94,0.00,,,0.46,0,Wunderground v.1.15,2013-04-18 09:46:00,
2013-04-18 04:52:00,35.3,33.7,29.75,North,360,18.0,21.0,94,0.00,,,0.46,0,Wunderground v.1.15,2013-04-18 09:52:00,
2013-04-18 04:57:00,35.2,33.6,29.74,North,355,18.0,21.0,94,0.00,,,0.46,0,Wunderground v.1.15,2013-04-18 09:57:00,
2013-04-18 05:02:00,35.1,33.5,29.75,NNW,345,17.0,23.0,94,0.00,,,0.46,0,Wunderground v.1.15,2013-04-18 10:02:00,
2013-04-18 05:07:00,35.0,33.4,29.75,North,5,17.0,23.0,94,0.00,,,0.46,0,Wunderground v.1.15,2013-04-18 10:07:00,
2013-04-18 05:13:00,34.9,33.6,29.75,NNW,340,17.0,21.0,95,0.00,,,0.46,0,Wunderground v.1.15,2013-04-18 10:13:00,
2013-04-18 05:19:00,34.8,33.5,29.75,NNW,348,18.0,22.0,95,0.00,,,0.46,0,Wunderground v.1.15,2013-04-18 10:19:00,
2013-04-18 05:25:00,34.7,33.4,29.75,North,355,17.0,19.0,95,0.00,,,0.47,0,Wunderground v.1.15,2013-04-18 10:25:00,
2013-04-18 05:30:00,34.7,33.4,29.75,NNW,337,16.0,16.0,95,0.00,,,0.47,0,Wunderground v.1.15,2013-04-18 10:30:00,
2013-04-18 05:36:00,34.7,33.4,29.75,North,349,17.0,23.0,95,0.00,,,0.47,0,Wunderground v.1.15,2013-04-18 10:36:00,
2013-04-18 05:41:00,34.7,33.4,29.74,NNW,337,18.0,23.0,95,0.00,,,0.47,0,Wunderground v.1.15,2013-04-18 10:41:00,
2013-04-18 05:46:00,34.6,33.3,29.75,NNE,30,19.0,23.0,95,0.00,,,0.47,0,Wunderground v.1.15,2013-04-18 10:46:00,
2013-04-18 05:51:00,34.6,33.3,29.74,North,360,17.0,19.0,95,0.00,,,0.47,0,Wunderground v.1.15,2013-04-18 10:51:00,
2013-04-18 05:57:00,34.6,33.3,29.74,NNW,348,18.0,27.0,95,0.00,,,0.47,0,Wunderground v.1.15,2013-04-18 10:57:00,
2013-04-18 06:02:00,34.5,33.2,29.73,NNW,342,20.0,27.0,95,0.00,,,0.47,0,Wunderground v.1.15,2013-04-18 11:02:00,
2013-04-18 06:08:00,34.5,33.2,29.73,North,355,19.0,27.0,95,0.00,,,0.47,0,Wunderground v.1.15,2013-04-18 11:08:00,
2013-04-18 06:14:00,34.4,33.4,29.73,NNW,336,17.0,20.0,96,0.00,,,0.47,0,Wunderground v.1.15,2013-04-18 11:14:00,
2013-04-18 06:19:00,34.4,33.4,29.74,NNW,345,17.0,20.0,96,0.00,,,0.47,0,Wunderground v.1.15,2013-04-18 11:19:00,
2013-04-18 06:24:00,34.4,33.4,29.75,NNW,333,16.0,19.0,96,0.00,,,0.47,0,Wunderground v.1.15,2013-04-18 11:24:00,
2013-04-18 06:29:00,34.4,33.4,29.74,NNW,342,16.0,19.0,96,0.00,,,0.47,0,Wunderground v.1.15,2013-04-18 11:29:00,
2013-04-18 06:34:00,34.4,33.4,29.73,North,11,16.0,20.0,96,0.00,,,0.48,0,Wunderground v.1.15,2013-04-18 11:34:00,
2013-04-18 06:40:00,34.4,33.4,29.73,NNW,346,17.0,19.0,96,0.00,,,0.48,0,Wunderground v.1.15,2013-04-18 11:40:00,
2013-04-18 06:46:00,34.4,33.4,29.75,NNW,331,16.0,19.0,96,0.00,,,0.48,0,Wunderground v.1.15,2013-04-18 11:46:00,
2013-04-18 06:51:00,34.5,33.5,29.76,NNW,340,15.0,15.0,96,0.00,,,0.48,0,Wunderground v.1.15,2013-04-18 11:51:00,
2013-04-18 06:57:00,34.5,33.5,29.75,NNW,347,14.0,19.0,96,0.00,,,0.48,0,Wunderground v.1.15,2013-04-18 11:57:00,
2013-04-18 07:02:00,34.4,33.4,29.76,NNW,327,14.0,16.0,96,0.00,,,0.49,0,Wunderground v.1.15,2013-04-18 12:02:00,
2013-04-18 07:07:00,34.4,33.4,29.77,NNW,329,14.0,16.0,96,0.00,,,0.49,0,Wunderground v.1.15,2013-04-18 12:07:00,
2013-04-18 07:12:00,34.3,33.3,29.76,NNW,339,14.0,15.0,96,0.00,,,0.49,7,Wunderground v.1.15,2013-04-18 12:12:00,
2013-04-18 07:17:00,34.3,33.3,29.76,NNW,342,14.0,18.0,96,0.00,,,0.49,7,Wunderground v.1.15,2013-04-18 12:17:00,
2013-04-18 07:23:00,34.3,33.5,29.77,NW,321,15.0,17.0,97,0.00,,,0.49,11,Wunderground v.1.15,2013-04-18 12:23:00,
2013-04-18 07:29:00,34.3,33.5,29.79,NNW,331,14.0,17.0,97,0.00,,,0.49,14,Wunderground v.1.15,2013-04-18 12:29:00,
2013-04-18 07:35:00,34.3,33.5,29.80,NNW,331,12.0,16.0,97,0.00,,,0.50,19,Wunderground v.1.15,2013-04-18 12:35:00,
2013-04-18 07:40:00,34.3,33.5,29.78,North,355,12.0,13.0,97,0.00,,,0.50,32,Wunderground v.1.15,2013-04-18 12:40:00,
2013-04-18 07:46:00,34.2,33.2,29.78,NW,323,14.0,15.0,96,0.00,,,0.50,26,Wunderground v.1.15,2013-04-18 12:46:00,
2013-04-18 07:52:00,34.2,33.4,29.79,NW,314,14.0,20.0,97,0.00,,,0.50,14,Wunderground v.1.15,2013-04-18 12:52:00,
2013-04-18 07:58:00,34.2,33.4,29.78,NNW,332,14.0,20.0,97,0.00,,,0.51,35,Wunderground v.1.15,2013-04-18 12:58:00,
2013-04-18 08:03:00,34.0,33.0,29.79,NW,326,14.0,20.0,96,0.00,,,0.51,46,Wunderground v.1.15,2013-04-18 13:03:00,
2013-04-18 08:08:00,33.5,32.5,29.79,NW,318,16.0,20.0,96,0.00,,,0.51,32,Wunderground v.1.15,2013-04-18 13:08:00,
2013-04-18 08:13:00,33.3,32.3,29.79,NNW,330,17.0,22.0,96,0.00,,,0.51,40,Wunderground v.1.15,2013-04-18 13:13:00,
2013-04-18 08:18:00,33.2,32.2,29.76,NNW,338,18.0,22.0,96,0.00,,,0.51,47,Wunderground v.1.15,2013-04-18 13:18:00,
2013-04-18 08:24:00,33.2,32.4,29.77,NW,321,18.0,23.0,97,0.00,,,0.51,49,Wunderground v.1.15,2013-04-18 13:24:00,
2013-04-18 08:30:00,33.1,32.3,29.77,NNW,332,18.0,23.0,97,0.00,,,0.52,77,Wunderground v.1.15,2013-04-18 13:30:00,
2013-04-18 08:36:00,33.2,32.4,29.78,NW,311,19.0,27.0,97,0.00,,,0.52,74,Wunderground v.1.15,2013-04-18 13:36:00,
2013-04-18 08:42:00,33.2,32.2,29.78,NW,317,19.0,26.0,96,0.00,,,0.52,70,Wunderground v.1.15,2013-04-18 13:42:00,
2013-04-18 08:47:00,33.1,32.1,29.77,NNW,340,19.0,26.0,96,0.00,,,0.52,60,Wunderground v.1.15,2013-04-18 13:47:00,
2013-04-18 08:53:00,33.0,32.0,29.77,NNW,343,19.0,19.0,96,0.00,,,0.52,65,Wunderground v.1.15,2013-04-18 13:53:00,
2013-04-18 08:58:00,33.0,32.0,29.78,NNW,343,19.0,21.0,96,0.00,,,0.52,63,Wunderground v.1.15,2013-04-18 13:58:00,
2013-04-18 09:03:00,32.9,31.9,29.78,North,355,18.0,19.0,96,0.00,,,0.52,67,Wunderground v.1.15,2013-04-18 14:03:00,
2013-04-18 09:09:00,33.0,32.0,29.78,NNW,344,18.0,21.0,96,0.00,,,0.52,127,Wunderground v.1.15,2013-04-18 14:09:00,
2013-04-18 09:14:00,32.9,31.9,29.77,NW,317,19.0,24.0,96,0.00,,,0.52,86,Wunderground v.1.15,2013-04-18 14:14:00,
2013-04-18 09:19:00,32.9,32.1,29.78,NNW,331,19.0,24.0,97,0.00,,,0.52,72,Wunderground v.1.15,2013-04-18 14:19:00,
2013-04-18 09:24:00,32.6,31.6,29.77,NNW,330,19.0,27.0,96,0.00,,,0.52,77,Wunderground v.1.15,2013-04-18 14:24:00,
2013-04-18 09:29:00,32.4,31.4,29.77,NNW,327,21.0,27.0,96,0.00,,,0.52,95,Wunderground v.1.15,2013-04-18 14:29:00,
2013-04-18 09:35:00,32.2,31.4,29.77,NNW,336,22.0,27.0,97,0.00,,,0.52,113,Wunderground v.1.15,2013-04-18 14:35:00,
2013-04-18 09:40:00,32.1,31.3,29.77,NW,321,20.0,23.0,97,0.00,,,0.52,151,Wunderground v.1.15,2013-04-18 14:40:00,
2013-04-18 09:45:00,31.8,31.0,29.77,NNW,335,20.0,25.0,97,0.00,,,0.52,134,Wunderground v.1.15,2013-04-18 14:45:00,
2013-04-18 09:50:00,31.8,31.0,29.77,NNW,330,22.0,25.0,97,0.00,,,0.52,153,Wunderground v.1.15,2013-04-18 14:50:00,
2013-04-18 09:55:00,31.8,31.0,29.78,NNW,346,21.0,25.0,97,0.00,,,0.52,146,Wunderground v.1.15,2013-04-18 14:55:00,
2013-04-18 10:01:00,31.8,31.0,29.78,NW,321,21.0,21.0,97,0.00,,,0.52,153,Wunderground v.1.15,2013-04-18 15:01:00,
2013-04-18 10:06:00,31.7,30.9,29.78,NNW,337,22.0,27.0,97,0.00,,,0.52,179,Wunderground v.1.15,2013-04-18 15:06:00,
2013-04-18 10:11:00,31.8,31.0,29.78,NNW,338,22.0,27.0,97,0.00,,,0.52,181,Wunderground v.1.15,2013-04-18 15:11:00,
2013-04-18 10:16:00,31.8,31.3,29.79,NNW,348,22.0,27.0,98,0.00,,,0.52,207,Wunderground v.1.15,2013-04-18 15:16:00,
2013-04-18 10:22:00,31.9,31.4,29.79,NNW,331,22.0,23.0,98,0.00,,,0.52,211,Wunderground v.1.15,2013-04-18 15:22:00,
2013-04-18 10:27:00,32.0,31.5,29.79,NNW,331,22.0,25.0,98,0.00,,,0.52,271,Wunderground v.1.15,2013-04-18 15:27:00,
2013-04-18 10:33:00,32.0,31.5,29.78,NNW,341,22.0,31.0,98,0.00,,,0.52,225,Wunderground v.1.15,2013-04-18 15:33:00,
2013-04-18 10:39:00,32.0,31.5,29.78,NNW,346,22.0,31.0,98,0.00,,,0.52,195,Wunderground v.1.15,2013-04-18 15:39:00,
2013-04-18 10:45:00,32.1,31.6,29.78,NW,319,22.0,23.0,98,0.00,,,0.53,200,Wunderground v.1.15,2013-04-18 15:45:00,
2013-04-18 10:51:00,32.1,31.6,29.78,West,280,21.0,24.0,98,0.00,,,0.53,206,Wunderground v.1.15,2013-04-18 15:51:00,
2013-04-18 10:56:00,32.1,31.6,29.79,NW,315,22.0,27.0,98,0.00,,,0.53,248,Wunderground v.1.15,2013-04-18 15:56:00,
2013-04-18 11:01:00,32.2,31.7,29.79,NNW,332,22.0,22.0,98,0.00,,,0.53,272,Wunderground v.1.15,2013-04-18 16:01:00,
2013-04-18 11:06:00,32.3,31.8,29.79,NNW,328,23.0,29.0,98,0.00,,,0.53,229,Wunderground v.1.15,2013-04-18 16:06:00,
2013-04-18 11:12:00,32.3,31.8,29.80,NNW,337,21.0,22.0,98,0.00,,,0.53,232,Wunderground v.1.15,2013-04-18 16:12:00,
2013-04-18 11:17:00,32.3,31.8,29.79,NNW,327,20.0,26.0,98,0.00,,,0.53,209,Wunderground v.1.15,2013-04-18 16:17:00,
2013-04-18 11:22:00,32.3,31.8,29.79,NNW,328,20.0,26.0,98,0.00,,,0.54,185,Wunderground v.1.15,2013-04-18 16:22:00,
2013-04-18 11:27:00,32.2,31.7,29.80,NW,321,20.0,26.0,98,0.00,,,0.54,172,Wunderground v.1.15,2013-04-18 16:27:00,
2013-04-18 11:33:00,32.2,31.7,29.80,North,355,21.0,23.0,98,0.00,,,0.54,211,Wunderground v.1.15,2013-04-18 16:33:00,
2013-04-18 11:38:00,32.3,31.8,29.80,NW,323,21.0,26.0,98,0.00,,,0.54,232,Wunderground v.1.15,2013-04-18 16:38:00,
2013-04-18 11:43:00,32.4,31.9,29.80,NNW,333,21.0,21.0,98,0.00,,,0.55,287,Wunderground v.1.15,2013-04-18 16:43:00,
2013-04-18 11:48:00,32.5,32.0,29.79,NNW,333,20.0,23.0,98,0.00,,,0.55,318,Wunderground v.1.15,2013-04-18 16:48:00,
2013-04-18 11:54:00,32.6,32.1,29.79,North,349,20.0,22.0,98,0.00,,,0.55,292,Wunderground v.1.15,2013-04-18 16:54:00,
2013-04-18 12:00:00,32.6,32.1,29.80,NW,307,20.0,28.0,98,0.00,,,0.55,292,Wunderground v.1.15,2013-04-18 17:00:00,
2013-04-18 12:05:00,32.8,32.3,29.79,NNW,328,21.0,28.0,98,0.00,,,0.56,366,Wunderground v.1.15,2013-04-18 17:05:00,
2013-04-18 12:10:00,32.9,32.4,29.80,NNW,329,21.0,23.0,98,0.00,,,0.56,304,Wunderground v.1.15,2013-04-18 17:10:00,
2013-04-18 12:16:00,33.0,32.5,29.79,NNW,331,22.0,29.0,98,0.00,,,0.56,482,Wunderground v.1.15,2013-04-18 17:16:00,
2013-04-18 12:21:00,33.1,32.6,29.79,NNW,333,22.0,23.0,98,0.00,,,0.56,336,Wunderground v.1.15,2013-04-18 17:21:00,
2013-04-18 12:26:00,33.3,32.8,29.79,NW,307,21.0,31.0,98,0.00,,,0.56,387,Wunderground v.1.15,2013-04-18 17:26:00,
2013-04-18 12:32:00,33.4,32.9,29.79,NNW,340,23.0,27.0,98,0.00,,,0.56,538,Wunderground v.1.15,2013-04-18 17:32:00,
2013-04-18 12:37:00,33.8,33.3,29.79,NNW,327,24.0,27.0,98,0.00,,,0.56,420,Wunderground v.1.15,2013-04-18 17:37:00,
2013-04-18 12:43:00,33.8,33.3,29.79,NNW,331,23.0,25.0,98,0.00,,,0.57,285,Wunderground v.1.15,2013-04-18 17:43:00,
2013-04-18 12:48:00,33.6,33.1,29.79,NW,308,23.0,29.0,98,0.00,,,0.57,367,Wunderground v.1.15,2013-04-18 17:48:00,
2013-04-18 12:53:00,33.9,33.4,29.79,NNW,329,22.0,24.0,98,0.00,,,0.57,237,Wunderground v.1.15,2013-04-18 17:53:00,
2013-04-18 12:58:00,33.6,33.1,29.79,NNW,335,23.0,31.0,98,0.00,,,0.57,241,Wunderground v.1.15,2013-04-18 17:58:00,
2013-04-18 13:03:00,33.8,33.3,29.80,NW,319,24.0,26.0,98,0.00,,,0.57,371,Wunderground v.1.15,2013-04-18 18:03:00,
2013-04-18 13:09:00,34.1,33.6,29.80,NW,315,22.0,26.0,98,0.00,,,0.57,269,Wunderground v.1.15,2013-04-18 18:09:00,
2013-04-18 13:14:00,33.9,33.4,29.80,North,349,22.0,25.0,98,0.00,,,0.57,214,Wunderground v.1.15,2013-04-18 18:14:00,
2013-04-18 13:20:00,33.6,33.1,29.80,NNW,340,22.0,28.0,98,0.00,,,0.57,297,Wunderground v.1.15,2013-04-18 18:20:00,
2013-04-18 13:25:00,33.9,33.4,29.80,NW,314,24.0,31.0,98,0.00,,,0.57,227,Wunderground v.1.15,2013-04-18 18:25:00,
2013-04-18 13:31:00,34.0,33.5,29.80,NNW,348,21.0,26.0,98,0.00,,,0.57,323,Wunderground v.1.15,2013-04-18 18:31:00,
2013-04-18 13:36:00,34.2,33.7,29.81,NNW,328,20.0,26.0,98,0.00,,,0.57,278,Wunderground v.1.15,2013-04-18 18:36:00,
2013-04-18 13:41:00,34.1,33.6,29.81,NW,311,20.0,26.0,98,0.00,,,0.57,311,Wunderground v.1.15,2013-04-18 18:41:00,
2013-04-18 13:47:00,34.0,33.5,29.82,NW,319,22.0,30.0,98,0.00,,,0.57,214,Wunderground v.1.15,2013-04-18 18:47:00,
2013-04-18 13:52:00,33.7,33.2,29.82,NNW,344,23.0,29.0,98,0.00,,,0.57,253,Wunderground v.1.15,2013-04-18 18:52:00,
2013-04-18 13:57:00,33.8,33.3,29.82,NNW,345,22.0,30.0,98,0.00,,,0.57,185,Wunderground v.1.15,2013-04-18 18:57:00,
2013-04-18 14:02:00,33.7,33.2,29.83,NNW,327,22.0,26.0,98,0.00,,,0.57,209,Wunderground v.1.15,2013-04-18 19:02:00,
2013-04-18 14:08:00,33.8,33.3,29.83,NNW,329,22.0,26.0,98,0.00,,,0.57,225,Wunderground v.1.15,2013-04-18 19:08:00,
2013-04-18 14:13:00,34.1,33.6,29.83,NNW,328,21.0,26.0,98,0.00,,,0.57,197,Wunderground v.1.15,2013-04-18 19:13:00,
2013-04-18 14:18:00,34.1,33.6,29.83,NNW,339,21.0,26.0,98,0.00,,,0.57,193,Wunderground v.1.15,2013-04-18 19:18:00,
2013-04-18 14:24:00,34.3,33.8,29.83,NNW,348,20.0,24.0,98,0.00,,,0.57,206,Wunderground v.1.15,2013-04-18 19:24:00,
2013-04-18 14:30:00,34.4,33.6,29.83,North,349,22.0,22.0,97,0.00,,,0.57,225,Wunderground v.1.15,2013-04-18 19:30:00,
2013-04-18 14:35:00,34.6,33.8,29.83,NNW,328,22.0,24.0,97,0.00,,,0.57,227,Wunderground v.1.15,2013-04-18 19:35:00,
2013-04-18 14:41:00,34.8,34.0,29.84,NW,310,21.0,24.0,97,0.00,,,0.57,262,Wunderground v.1.15,2013-04-18 19:41:00,
2013-04-18 14:47:00,34.9,34.1,29.84,NNW,327,19.0,24.0,97,0.00,,,0.57,148,Wunderground v.1.15,2013-04-18 19:47:00,
2013-04-18 14:52:00,34.9,34.1,29.84,NW,325,21.0,21.0,97,0.00,,,0.57,206,Wunderground v.1.15,2013-04-18 19:52:00,
2013-04-18 14:58:00,34.9,33.9,29.84,NW,321,20.0,28.0,96,0.00,,,0.57,195,Wunderground v.1.15,2013-04-18 19:58:00,
2013-04-18 15:04:00,34.9,33.9,29.84,NNW,337,20.0,26.0,96,0.00,,,0.57,192,Wunderground v.1.15,2013-04-18 20:04:00,
2013-04-18 15:09:00,35.0,33.7,29.84,NNW,344,21.0,29.0,95,0.00,,,0.57,216,Wunderground v.1.15,2013-04-18 20:09:00,
2013-04-18 15:14:00,35.0,33.2,29.84,NW,326,22.0,28.0,93,0.00,,,0.57,246,Wunderground v.1.15,2013-04-18 20:14:00,
2013-04-18 15:19:00,35.3,33.2,29.84,NNW,344,23.0,29.0,92,0.00,,,0.57,334,Wunderground v.1.15,2013-04-18 20:19:00,
2013-04-18 15:24:00,35.6,33.5,29.85,NNW,341,21.0,22.0,92,0.00,,,0.57,246,Wunderground v.1.15,2013-04-18 20:24:00,
2013-04-18 15:30:00,35.6,33.2,29.85,NW,307,20.0,24.0,91,0.00,,,0.57,206,Wunderground v.1.15,2013-04-18 20:30:00,
2013-04-18 15:37:00,35.3,32.7,29.85,NW,323,21.0,25.0,90,0.00,,,0.57,260,Wunderground v.1.15,2013-04-18 20:37:00,
2013-04-18 15:42:00,35.4,33.0,29.85,NNW,327,21.0,23.0,91,0.00,,,0.57,225,Wunderground v.1.15,2013-04-18 20:42:00,
2013-04-18 15:48:00,35.7,33.1,29.85,NNW,328,20.0,23.0,90,0.00,,,0.57,200,Wunderground v.1.15,2013-04-18 20:48:00,
2013-04-18 15:54:00,35.6,32.7,29.86,NNW,346,20.0,30.0,89,0.00,,,0.57,188,Wunderground v.1.15,2013-04-18 20:54:00,
2013-04-18 15:59:00,35.7,32.8,29.85,NNW,346,20.0,30.0,89,0.00,,,0.57,264,Wunderground v.1.15,2013-04-18 20:59:00,
2013-04-18 16:04:00,35.9,33.0,29.85,WNW,293,20.0,22.0,89,0.00,,,0.57,267,Wunderground v.1.15,2013-04-18 21:04:00,
2013-04-18 16:09:00,35.8,32.9,29.85,West,279,21.0,27.0,89,0.00,,,0.57,221,Wunderground v.1.15,2013-04-18 21:09:00,
2013-04-18 16:15:00,36.1,33.2,29.85,NW,313,20.0,23.0,89,0.00,,,0.57,207,Wunderground v.1.15,2013-04-18 21:15:00,
2013-04-18 16:21:00,36.4,33.2,29.85,NW,317,18.0,18.0,88,0.00,,,0.57,267,Wunderground v.1.15,2013-04-18 21:21:00,
2013-04-18 16:27:00,36.3,32.8,29.85,NNW,331,18.0,34.0,87,0.00,,,0.57,221,Wunderground v.1.15,2013-04-18 21:27:00,
2013-04-18 16:33:00,36.1,32.6,29.85,NNW,330,20.0,27.0,87,0.00,,,0.57,120,Wunderground v.1.15,2013-04-18 21:33:00,
2013-04-18 16:39:00,36.0,32.5,29.85,NW,315,21.0,27.0,87,0.00,,,0.57,278,Wunderground v.1.15,2013-04-18 21:39:00,
2013-04-18 16:44:00,36.0,32.2,29.85,NW,315,20.0,24.0,86,0.00,,,0.57,209,Wunderground v.1.15,2013-04-18 21:44:00,
2013-04-18 16:49:00,35.8,32.3,29.86,NW,324,20.0,26.0,87,0.00,,,0.57,139,Wunderground v.1.15,2013-04-18 21:49:00,
2013-04-18 16:54:00,35.5,32.3,29.86,NNW,331,19.0,20.0,88,0.00,,,0.57,158,Wunderground v.1.15,2013-04-18 21:54:00,
2013-04-18 16:59:00,35.4,32.2,29.86,NW,323,19.0,28.0,88,0.00,,,0.57,141,Wunderground v.1.15,2013-04-18 21:59:00,
2013-04-18 17:05:00,35.3,31.8,29.86,NW,315,21.0,24.0,87,0.00,,,0.57,181,Wunderground v.1.15,2013-04-18 22:05:00,
2013-04-18 17:11:00,35.4,32.2,29.86,NNW,329,21.0,21.0,88,0.00,,,0.57,162,Wunderground v.1.15,2013-04-18 22:11:00,
2013-04-18 17:17:00,35.2,31.4,29.87,NNW,338,20.0,25.0,86,0.00,,,0.57,107,Wunderground v.1.15,2013-04-18 22:17:00,
2013-04-18 17:22:00,35.3,32.4,29.87,NNW,327,19.0,20.0,89,0.00,,,0.57,165,Wunderground v.1.15,2013-04-18 22:22:00,
2013-04-18 17:27:00,35.3,32.1,29.87,NW,318,17.0,27.0,88,0.00,,,0.57,72,Wunderground v.1.15,2013-04-18 22:27:00,
2013-04-18 17:32:00,34.9,32.0,29.87,NNW,333,18.0,18.0,89,0.00,,,0.57,123,Wunderground v.1.15,2013-04-18 22:32:00,
2013-04-18 17:37:00,34.9,31.7,29.87,NW,305,18.0,24.0,88,0.00,,,0.57,114,Wunderground v.1.15,2013-04-18 22:37:00,
2013-04-18 17:43:00,35.0,31.8,29.87,NW,312,19.0,22.0,88,0.00,,,0.57,67,Wunderground v.1.15,2013-04-18 22:43:00,
2013-04-18 17:49:00,35.0,31.2,29.87,NW,315,20.0,24.0,86,0.00,,,0.57,137,Wunderground v.1.15,2013-04-18 22:49:00,
2013-04-18 17:55:00,35.1,31.0,29.88,NNW,338,22.0,26.0,85,0.00,,,0.57,88,Wunderground v.1.15,2013-04-18 22:55:00,
2013-04-18 18:00:00,35.2,31.4,29.88,NNW,340,20.0,24.0,86,0.00,,,0.57,91,Wunderground v.1.15,2013-04-18 23:00:00,
2013-04-18 18:05:00,35.2,31.1,29.88,NW,314,19.0,29.0,85,0.00,,,0.57,84,Wunderground v.1.15,2013-04-18 23:05:00,
2013-04-18 18:11:00,35.1,31.0,29.88,NW,304,20.0,25.0,85,0.00,,,0.57,104,Wunderground v.1.15,2013-04-18 23:11:00,
2013-04-18 18:17:00,35.1,30.8,29.88,NW,305,22.0,39.0,84,0.00,,,0.57,83,Wunderground v.1.15,2013-04-18 23:17:00,
2013-04-18 18:22:00,35.1,31.0,29.89,NW,309,22.0,22.0,85,0.00,,,0.57,51,Wunderground v.1.15,2013-04-18 23:22:00,
2013-04-18 18:27:00,35.1,31.0,29.89,NW,308,19.0,22.0,85,0.00,,,0.57,77,Wunderground v.1.15,2013-04-18 23:27:00,
2013-04-18 18:32:00,35.0,30.7,29.89,NNW,339,18.0,22.0,84,0.00,,,0.57,58,Wunderground v.1.15,2013-04-18 23:32:00,
2013-04-18 18:37:00,34.9,30.6,29.89,NNW,341,21.0,31.0,84,0.00,,,0.57,58,Wunderground v.1.15,2013-04-18 23:37:00,
2013-04-18 18:42:00,34.9,30.6,29.89,NW,325,21.0,23.0,84,0.00,,,0.57,37,Wunderground v.1.15,2013-04-18 23:42:00,
2013-04-18 18:48:00,34.9,30.3,29.90,NW,320,20.0,26.0,83,0.00,,,0.57,58,Wunderground v.1.15,2013-04-18 23:48:00,
2013-04-18 18:53:00,34.9,30.6,29.90,WNW,295,20.0,20.0,84,0.00,,,0.57,33,Wunderground v.1.15,2013-04-18 23:53:00,
2013-04-18 18:58:00,34.8,30.5,29.90,NW,312,19.0,23.0,84,0.00,,,0.57,42,Wunderground v.1.15,2013-04-18 23:58:00,
2013-04-18 19:04:00,34.8,30.5,29.90,NNW,335,18.0,18.0,84,0.00,,,0.57,23,Wunderground v.1.15,2013-04-19 00:04:00,
2013-04-18 19:10:00,34.7,30.1,29.90,NW,315,20.0,20.0,83,0.00,,,0.57,25,Wunderground v.1.15,2013-04-19 00:10:00,
2013-04-18 19:16:00,34.7,30.1,29.91,NNW,331,21.0,29.0,83,0.00,,,0.57,19,Wunderground v.1.15,2013-04-19 00:16:00,
2013-04-18 19:22:00,34.6,30.0,29.91,NW,316,20.0,22.0,83,0.00,,,0.57,14,Wunderground v.1.15,2013-04-19 00:22:00,
2013-04-18 19:27:00,34.6,30.3,29.91,NW,325,18.0,23.0,84,0.00,,,0.57,19,Wunderground v.1.15,2013-04-19 00:27:00,
2013-04-18 19:32:00,34.5,29.9,29.91,NNW,328,18.0,21.0,83,0.00,,,0.57,9,Wunderground v.1.15,2013-04-19 00:32:00,
2013-04-18 19:37:00,34.5,30.2,29.91,NNW,335,19.0,21.0,84,0.00,,,0.57,9,Wunderground v.1.15,2013-04-19 00:37:00,
2013-04-18 19:43:00,34.3,30.0,29.92,NW,326,18.0,25.0,84,0.00,,,0.57,9,Wunderground v.1.15,2013-04-19 00:43:00,
2013-04-18 19:49:00,34.1,29.5,29.92,NNW,337,20.0,29.0,83,0.00,,,0.57,7,Wunderground v.1.15,2013-04-19 00:49:00,
2013-04-18 19:54:00,34.0,29.4,29.92,NW,322,21.0,29.0,83,0.00,,,0.57,5,Wunderground v.1.15,2013-04-19 00:54:00,
2013-04-18 19:59:00,33.9,29.6,29.92,NNW,337,21.0,29.0,84,0.00,,,0.57,0,Wunderground v.1.15,2013-04-19 00:59:00,
2013-04-18 20:05:00,33.9,29.3,29.92,NW,312,22.0,24.0,83,0.00,,,0.57,0,Wunderground v.1.15,2013-04-19 01:05:00,
2013-04-18 20:11:00,33.8,29.2,29.92,NW,323,23.0,32.0,83,0.00,,,0.57,0,Wunderground v.1.15,2013-04-19 01:11:00,
2013-04-18 20:17:00,33.5,28.9,29.92,NNW,344,21.0,32.0,83,0.00,,,0.57,0,Wunderground v.1.15,2013-04-19 01:17:00,
2013-04-18 20:22:00,33.4,29.1,29.92,NNW,339,21.0,21.0,84,0.00,,,0.57,0,Wunderground v.1.15,2013-04-19 01:22:00,
2013-04-18 20:28:00,33.4,29.1,29.93,NNW,327,22.0,31.0,84,0.00,,,0.57,0,Wunderground v.1.15,2013-04-19 01:28:00,
2013-04-18 20:34:00,33.2,29.2,29.92,NNW,328,21.0,24.0,85,0.00,,,0.57,0,Wunderground v.1.15,2013-04-19 01:34:00,
2013-04-18 20:39:00,33.0,29.0,29.93,NNW,341,22.0,25.0,85,0.00,,,0.57,0,Wunderground v.1.15,2013-04-19 01:39:00,
2013-04-18 20:44:00,32.9,29.2,29.93,NNW,334,22.0,22.0,86,0.00,,,0.57,0,Wunderground v.1.15,2013-04-19 01:44:00,
2013-04-18 20:49:00,32.8,29.1,29.93,WNW,298,20.0,23.0,86,0.00,,,0.57,0,Wunderground v.1.15,2013-04-19 01:49:00,
2013-04-18 20:54:00,32.8,29.1,29.94,WNW,301,20.0,28.0,86,0.00,,,0.57,0,Wunderground v.1.15,2013-04-19 01:54:00,
2013-04-18 20:59:00,32.8,29.1,29.94,NW,310,20.0,28.0,86,0.00,,,0.57,0,Wunderground v.1.15,2013-04-19 01:59:00,
2013-04-18 21:05:00,32.8,29.1,29.94,NNW,340,19.0,25.0,86,0.00,,,0.57,0,Wunderground v.1.15,2013-04-19 02:05:00,
2013-04-18 21:11:00,32.8,29.4,29.94,NW,326,19.0,19.0,87,0.00,,,0.57,0,Wunderground v.1.15,2013-04-19 02:11:00,
2013-04-18 21:17:00,32.7,29.3,29.94,NW,320,17.0,19.0,87,0.00,,,0.57,0,Wunderground v.1.15,2013-04-19 02:17:00,
2013-04-18 21:23:00,32.6,29.4,29.95,WNW,302,15.0,19.0,88,0.00,,,0.57,0,Wunderground v.1.15,2013-04-19 02:23:00,
2013-04-18 21:30:00,32.5,29.6,29.95,NW,318,16.0,16.0,89,0.00,,,0.57,0,Wunderground v.1.15,2013-04-19 02:30:00,
2013-04-18 21:35:00,32.3,29.7,29.95,NW,314,14.0,19.0,90,0.00,,,0.57,0,Wunderground v.1.15,2013-04-19 02:35:00,
2013-04-18 21:40:00,32.2,29.6,29.95,NNW,329,14.0,15.0,90,0.00,,,0.57,0,Wunderground v.1.15,2013-04-19 02:40:00,
2013-04-18 21:45:00,32.3,29.7,29.95,WNW,300,14.0,15.0,90,0.00,,,0.57,0,Wunderground v.1.15,2013-04-19 02:45:00,
2013-04-18 21:50:00,32.4,29.8,29.95,NNW,327,13.0,14.0,90,0.00,,,0.57,0,Wunderground v.1.15,2013-04-19 02:50:00,
2013-04-18 21:55:00,32.5,29.9,29.95,NW,316,13.0,17.0,90,0.00,,,0.57,0,Wunderground v.1.15,2013-04-19 02:55:00,
2013-04-18 22:01:00,32.4,30.1,29.95,NW,309,13.0,18.0,91,0.00,,,0.57,0,Wunderground v.1.15,2013-04-19 03:01:00,
2013-04-18 22:07:00,32.3,30.0,29.95,NW,309,14.0,18.0,91,0.00,,,0.57,0,Wunderground v.1.15,2013-04-19 03:07:00,
2013-04-18 22:12:00,32.2,30.1,29.95,NW,304,14.0,18.0,92,0.00,,,0.57,0,Wunderground v.1.15,2013-04-19 03:12:00,
2013-04-18 22:17:00,32.1,30.0,29.95,NW,312,13.0,18.0,92,0.00,,,0.57,0,Wunderground v.1.15,2013-04-19 03:17:00,
2013-04-18 22:22:00,32.1,30.0,29.95,WNW,301,14.0,15.0,92,0.00,,,0.57,0,Wunderground v.1.15,2013-04-19 03:22:00,
2013-04-18 22:27:00,32.5,29.9,29.95,WNW,287,15.0,19.0,90,0.00,,,0.57,0,Wunderground v.1.15,2013-04-19 03:27:00,
2013-04-18 22:32:00,32.9,29.7,29.94,NW,316,16.0,24.0,88,0.00,,,0.57,0,Wunderground v.1.15,2013-04-19 03:32:00,
2013-04-18 22:38:00,33.2,29.8,29.95,NNW,335,18.0,24.0,87,0.00,,,0.57,0,Wunderground v.1.15,2013-04-19 03:38:00,
2013-04-18 22:43:00,33.2,29.5,29.95,NNW,332,18.0,20.0,86,0.00,,,0.57,0,Wunderground v.1.15,2013-04-19 03:43:00,
2013-04-18 22:49:00,33.3,29.6,29.94,NNW,332,17.0,22.0,86,0.00,,,0.57,0,Wunderground v.1.15,2013-04-19 03:49:00,
2013-04-18 22:54:00,33.3,29.6,29.94,NW,315,17.0,26.0,86,0.00,,,0.57,0,Wunderground v.1.15,2013-04-19 03:54:00,
2013-04-18 22:59:00,33.4,29.4,29.94,NW,315,19.0,26.0,85,0.00,,,0.57,0,Wunderground v.1.15,2013-04-19 03:59:00,
2013-04-18 23:01:00,33.3,29.3,29.94,NW,314,18.0,22.0,85,0.00,,,0.57,0,Wunderground v.1.15,2013-04-19 04:01:00,
2013-04-18 23:02:00,33.3,29.3,29.94,NNW,328,18.0,22.0,85,0.00,,,0.57,0,Wunderground v.1.15,2013-04-19 04:02:00,
2013-04-18 23:04:00,33.2,29.5,29.94,NNW,327,17.0,22.0,86,0.00,,,0.57,0,Wunderground v.1.15,2013-04-19 04:04:00,
2013-04-18 23:05:00,33.2,29.5,29.94,NNW,327,17.0,22.0,86,0.00,,,0.57,0,Wunderground v.1.15,2013-04-19 04:05:00,
2013-04-18 23:06:00,33.1,29.4,29.94,NNW,343,16.0,22.0,86,0.00,,,0.57,0,Wunderground v.1.15,2013-04-19 04:06:00,
2013-04-18 23:11:00,33.2,29.5,29.94,NNW,336,16.0,19.0,86,0.00,,,0.57,0,Wunderground v.1.15,2013-04-19 04:11:00,
2013-04-18 23:16:00,33.2,29.5,29.94,NW,321,15.0,19.0,86,0.00,,,0.57,0,Wunderground v.1.15,2013-04-19 04:16:00,
2013-04-18 23:22:00,33.2,29.5,29.94,NNW,329,13.0,14.0,86,0.00,,,0.57,0,Wunderground v.1.15,2013-04-19 04:22:00,
2013-04-18 23:27:00,33.2,29.5,29.94,NW,320,13.0,17.0,86,0.00,,,0.57,0,Wunderground v.1.15,2013-04-19 04:27:00,
2013-04-18 23:32:00,33.2,29.2,29.94,NW,321,14.0,18.0,85,0.00,,,0.57,0,Wunderground v.1.15,2013-04-19 04:32:00,
2013-04-18 23:37:00,33.2,29.2,29.93,NW,310,14.0,18.0,85,0.00,,,0.57,0,Wunderground v.1.15,2013-04-19 04:37:00,
2013-04-18 23:42:00,33.3,29.3,29.93,NW,313,15.0,23.0,85,0.00,,,0.57,0,Wunderground v.1.15,2013-04-19 04:42:00,
2013-04-18 23:48:00,33.2,29.2,29.93,NW,317,16.0,23.0,85,0.00,,,0.57,0,Wunderground v.1.15,2013-04-19 04:48:00,
2013-04-18 23:54:00,33.2,29.2,29.93,NW,319,15.0,20.0,85,0.00,,,0.57,0,Wunderground v.1.15,2013-04-19 04:54:00,